sensor_id;sensor_type;location;lat;lon;timestamp;P1;durP1;ratioP1;P2;durP2;ratioP2
46815;SDS011;32787;53.316;8.670;2022-10-29T18:55:46;31.58;;;18.00;;
46815;SDS011;32787;53.316;8.670;2022-10-29T18:58:13;34.38;;;18.30;;
46815;SDS011;32787;53.316;8.670;2022-10-29T19:00:38;32.30;;;19.00;;
46815;SDS011;32787;53.316;8.670;2022-10-29T19:03:04;39.72;;;20.35;;
46815;SDS011;32787;53.316;8.670;2022-10-29T19:05:29;46.08;;;25.23;;
46815;SDS011;32787;53.316;8.670;2022-10-29T19:07:58;43.42;;;22.73;;
46815;SDS011;32787;53.316;8.670;2022-10-29T19:10:24;37.72;;;20.88;;
46815;SDS011;32787;53.316;8.670;2022-10-29T19:12:49;33.20;;;20.00;;
46815;SDS011;32787;53.316;8.670;2022-10-29T19:15:15;35.78;;;20.85;;
46815;SDS011;32787;53.316;8.670;2022-10-29T19:17:40;40.75;;;21.70;;
46815;SDS011;32787;53.316;8.670;2022-10-29T19:20:06;40.60;;;21.25;;
46815;SDS011;32787;53.316;8.670;2022-10-29T19:22:32;35.63;;;20.38;;
46815;SDS011;32787;53.316;8.670;2022-10-29T19:24:57;36.38;;;21.30;;
46815;SDS011;32787;53.316;8.670;2022-10-29T19:27:23;32.50;;;20.75;;
46815;SDS011;32787;53.316;8.670;2022-10-29T19:29:49;33.60;;;19.90;;
46815;SDS011;32787;53.316;8.670;2022-10-29T19:32:14;37.05;;;20.25;;
46815;SDS011;32787;53.316;8.670;2022-10-29T19:34:40;34.70;;;19.90;;
46815;SDS011;32787;53.316;8.670;2022-10-29T19:37:05;37.72;;;19.20;;
46815;SDS011;32787;53.316;8.670;2022-10-29T19:39:31;33.88;;;17.42;;
46815;SDS011;32787;53.316;8.670;2022-10-29T19:41:56;36.25;;;18.08;;
46815;SDS011;32787;53.316;8.670;2022-10-29T19:44:22;36.30;;;18.45;;
46815;SDS011;32787;53.316;8.670;2022-10-29T19:46:48;30.55;;;17.73;;
46815;SDS011;32787;53.316;8.670;2022-10-29T19:49:13;30.58;;;17.83;;
46815;SDS011;32787;53.316;8.670;2022-10-29T19:51:39;38.47;;;18.45;;
46815;SDS011;32787;53.316;8.670;2022-10-29T19:54:04;30.02;;;16.92;;
46815;SDS011;32787;53.316;8.670;2022-10-29T19:56:32;33.90;;;17.00;;
46815;SDS011;32787;53.316;8.670;2022-10-29T19:58:57;34.28;;;17.13;;
46815;SDS011;32787;53.316;8.670;2022-10-29T20:01:23;29.38;;;17.25;;
46815;SDS011;32787;53.316;8.670;2022-10-29T20:03:49;35.30;;;16.38;;
46815;SDS011;32787;53.316;8.670;2022-10-29T20:06:15;28.38;;;15.73;;
46815;SDS011;32787;53.316;8.670;2022-10-29T20:08:41;36.63;;;17.73;;
46815;SDS011;32787;53.316;8.670;2022-10-29T20:11:07;35.88;;;17.75;;
46815;SDS011;32787;53.316;8.670;2022-10-29T20:13:33;32.78;;;18.02;;
46815;SDS011;32787;53.316;8.670;2022-10-29T20:16:04;43.97;;;21.02;;
46815;SDS011;32787;53.316;8.670;2022-10-29T20:18:35;40.25;;;20.08;;
46815;SDS011;32787;53.316;8.670;2022-10-29T20:21:02;32.72;;;17.65;;
46815;SDS011;32787;53.316;8.670;2022-10-29T20:23:28;36.85;;;17.38;;
46815;SDS011;32787;53.316;8.670;2022-10-29T20:25:54;32.78;;;17.00;;
46815;SDS011;32787;53.316;8.670;2022-10-29T20:28:19;31.77;;;16.42;;
46815;SDS011;32787;53.316;8.670;2022-10-29T20:30:45;30.63;;;17.33;;
46815;SDS011;32787;53.316;8.670;2022-10-29T20:33:11;28.90;;;17.33;;
46815;SDS011;32787;53.316;8.670;2022-10-29T20:35:36;35.38;;;17.33;;
46815;SDS011;32787;53.316;8.670;2022-10-29T20:38:02;31.67;;;16.60;;
46815;SDS011;32787;53.316;8.670;2022-10-29T20:40:28;32.42;;;16.58;;
46815;SDS011;32787;53.316;8.670;2022-10-29T20:42:54;35.53;;;17.50;;
46815;SDS011;32787;53.316;8.670;2022-10-29T20:45:19;35.28;;;16.85;;
46815;SDS011;32787;53.316;8.670;2022-10-29T20:47:45;33.22;;;16.70;;
46815;SDS011;32787;53.316;8.670;2022-10-29T20:50:10;33.20;;;17.75;;
46815;SDS011;32787;53.316;8.670;2022-10-29T20:52:36;32.90;;;17.50;;
46815;SDS011;32787;53.316;8.670;2022-10-29T20:55:02;34.60;;;17.63;;
46815;SDS011;32787;53.316;8.670;2022-10-29T20:57:28;31.85;;;17.30;;
46815;SDS011;32787;53.316;8.670;2022-10-29T20:59:53;34.40;;;17.65;;
46815;SDS011;32787;53.316;8.670;2022-10-29T21:02:19;30.30;;;16.70;;
46815;SDS011;32787;53.316;8.670;2022-10-29T21:04:44;33.95;;;17.35;;
46815;SDS011;32787;53.316;8.670;2022-10-29T21:07:10;37.33;;;18.33;;
46815;SDS011;32787;53.316;8.670;2022-10-29T21:09:36;30.58;;;16.92;;
46815;SDS011;32787;53.316;8.670;2022-10-29T21:12:01;32.22;;;17.83;;
46815;SDS011;32787;53.316;8.670;2022-10-29T21:14:27;34.88;;;19.10;;
46815;SDS011;32787;53.316;8.670;2022-10-29T21:16:53;37.83;;;17.85;;
46815;SDS011;32787;53.316;8.670;2022-10-29T21:19:19;33.83;;;17.38;;
46815;SDS011;32787;53.316;8.670;2022-10-29T21:21:46;31.15;;;16.70;;
46815;SDS011;32787;53.316;8.670;2022-10-29T21:24:12;34.63;;;17.33;;
46815;SDS011;32787;53.316;8.670;2022-10-29T21:26:38;34.95;;;16.98;;
46815;SDS011;32787;53.316;8.670;2022-10-29T21:29:03;28.25;;;16.08;;
46815;SDS011;32787;53.316;8.670;2022-10-29T21:31:29;35.20;;;16.30;;
46815;SDS011;32787;53.316;8.670;2022-10-29T21:33:54;29.45;;;16.20;;
46815;SDS011;32787;53.316;8.670;2022-10-29T21:36:20;27.02;;;15.73;;
46815;SDS011;32787;53.316;8.670;2022-10-29T21:38:47;31.45;;;16.00;;
46815;SDS011;32787;53.316;8.670;2022-10-29T21:41:12;28.70;;;16.00;;
46815;SDS011;32787;53.316;8.670;2022-10-29T21:43:38;28.00;;;16.00;;
46815;SDS011;32787;53.316;8.670;2022-10-29T21:46:04;27.60;;;15.38;;
46815;SDS011;32787;53.316;8.670;2022-10-29T21:48:30;30.02;;;16.15;;
46815;SDS011;32787;53.316;8.670;2022-10-29T21:51:00;33.60;;;16.25;;
46815;SDS011;32787;53.316;8.670;2022-10-29T21:53:27;34.33;;;17.23;;
46815;SDS011;32787;53.316;8.670;2022-10-29T21:55:56;29.90;;;17.00;;
46815;SDS011;32787;53.316;8.670;2022-10-29T21:58:23;28.13;;;16.27;;
46815;SDS011;32787;53.316;8.670;2022-10-29T22:00:48;27.58;;;16.10;;
46815;SDS011;32787;53.316;8.670;2022-10-29T22:03:14;29.55;;;16.17;;
46815;SDS011;32787;53.316;8.670;2022-10-29T22:05:40;26.80;;;15.15;;
46815;SDS011;32787;53.316;8.670;2022-10-29T22:08:05;24.33;;;15.40;;
46815;SDS011;32787;53.316;8.670;2022-10-29T22:10:31;28.63;;;17.13;;
46815;SDS011;32787;53.316;8.670;2022-10-29T22:12:56;29.20;;;16.10;;
46815;SDS011;32787;53.316;8.670;2022-10-29T22:15:22;29.88;;;16.50;;
46815;SDS011;32787;53.316;8.670;2022-10-29T22:17:47;29.75;;;16.13;;
46815;SDS011;32787;53.316;8.670;2022-10-29T22:20:13;30.42;;;16.02;;
46815;SDS011;32787;53.316;8.670;2022-10-29T22:22:39;27.50;;;15.60;;
46815;SDS011;32787;53.316;8.670;2022-10-29T22:25:05;28.13;;;15.35;;
46815;SDS011;32787;53.316;8.670;2022-10-29T22:27:31;25.63;;;14.70;;
46815;SDS011;32787;53.316;8.670;2022-10-29T22:29:56;30.10;;;15.50;;
46815;SDS011;32787;53.316;8.670;2022-10-29T22:32:22;26.83;;;15.88;;
46815;SDS011;32787;53.316;8.670;2022-10-29T22:34:48;29.40;;;14.82;;
46815;SDS011;32787;53.316;8.670;2022-10-29T22:37:13;26.65;;;14.02;;
46815;SDS011;32787;53.316;8.670;2022-10-29T22:39:39;32.83;;;16.58;;
46815;SDS011;32787;53.316;8.670;2022-10-29T22:42:04;26.15;;;14.93;;
46815;SDS011;32787;53.316;8.670;2022-10-29T22:44:30;25.63;;;15.57;;
46815;SDS011;32787;53.316;8.670;2022-10-29T22:46:55;24.30;;;14.73;;
46815;SDS011;32787;53.316;8.670;2022-10-29T22:49:21;30.25;;;16.23;;
46815;SDS011;32787;53.316;8.670;2022-10-29T22:51:47;29.38;;;14.73;;
46815;SDS011;32787;53.316;8.670;2022-10-29T22:54:12;24.38;;;14.55;;
46815;SDS011;32787;53.316;8.670;2022-10-29T22:56:38;26.17;;;15.73;;
46815;SDS011;32787;53.316;8.670;2022-10-29T22:59:04;26.45;;;14.40;;
46815;SDS011;32787;53.316;8.670;2022-10-29T23:01:35;25.70;;;15.43;;
46815;SDS011;32787;53.316;8.670;2022-10-29T23:04:01;24.48;;;13.52;;
46815;SDS011;32787;53.316;8.670;2022-10-29T23:06:27;19.77;;;12.50;;
46815;SDS011;32787;53.316;8.670;2022-10-29T23:08:54;22.35;;;12.05;;
46815;SDS011;32787;53.316;8.670;2022-10-29T23:11:23;22.55;;;12.85;;
46815;SDS011;32787;53.316;8.670;2022-10-29T23:13:51;25.40;;;13.85;;
46815;SDS011;32787;53.316;8.670;2022-10-29T23:16:18;24.38;;;13.23;;
46815;SDS011;32787;53.316;8.670;2022-10-29T23:18:50;22.50;;;12.40;;
46815;SDS011;32787;53.316;8.670;2022-10-29T23:21:17;22.80;;;13.20;;
46815;SDS011;32787;53.316;8.670;2022-10-29T23:23:43;25.05;;;12.57;;
46815;SDS011;32787;53.316;8.670;2022-10-29T23:26:10;25.70;;;12.27;;
46815;SDS011;32787;53.316;8.670;2022-10-29T23:28:36;19.77;;;12.20;;
46815;SDS011;32787;53.316;8.670;2022-10-29T23:31:03;24.00;;;12.02;;
46815;SDS011;32787;53.316;8.670;2022-10-29T23:33:30;25.50;;;12.38;;
46815;SDS011;32787;53.316;8.670;2022-10-29T23:36:06;24.40;;;13.52;;
46815;SDS011;32787;53.316;8.670;2022-10-29T23:38:33;25.50;;;12.65;;
46815;SDS011;32787;53.316;8.670;2022-10-29T23:40:59;25.88;;;13.77;;
46815;SDS011;32787;53.316;8.670;2022-10-29T23:43:25;24.33;;;12.73;;
46815;SDS011;32787;53.316;8.670;2022-10-29T23:45:51;24.73;;;12.30;;
46815;SDS011;32787;53.316;8.670;2022-10-29T23:48:17;23.15;;;13.43;;
46815;SDS011;32787;53.316;8.670;2022-10-29T23:50:43;29.17;;;14.02;;
46815;SDS011;32787;53.316;8.670;2022-10-29T23:53:09;21.65;;;12.27;;
46815;SDS011;32787;53.316;8.670;2022-10-29T23:55:35;26.67;;;13.48;;
46815;SDS011;32787;53.316;8.670;2022-10-29T23:58:01;35.13;;;13.40;;
